LFKZ weather

CLOSED Aérodrome de St Claude Pratz
Bourgogne-Franche-Comté, France

Public forecast

Using degrees Celsius for public forecast. Weather courtesy of forecast.io.

Closest aviation weather report (METAR) to Aérodrome de St Claude Pratz

Closest report is Geneva Cointrin International Airport, 16.6 nm (30.8 km) ESE. Retrieved 2020/06/02 14:50 UTC (14 minutes ago):

LSGG 021450Z 08007KT 9999 FEW045 FEW050TCU 25/06 Q1014 NOSIG

Closest aviation forecast (TAF) to Aérodrome de St Claude Pratz

Closest forecast is Geneva Cointrin International Airport, 16.6 nm (30.8 km) ESE. Retrieved 2020/06/02 15:39 UTC (0 seconds ago):

TAF LSGG 021425Z 0215/0321 06006KT 9999 FEW050 FEW060TCU TX26/0215Z TN11/0305Z TX26/0315Z PROB40 TEMPO 0310/0316 22015KT SHRA PROB30 TEMPO 0310/0316 22015G30KT TSRA